sensor_id;sensor_type;location;lat;lon;timestamp;pressure;altitude;pressure_sealevel;temperature;humidity
81224;BME280;70698;44.402;18.522;2024-03-22T00:00:41;97779.09;;;7.10;73.50
81224;BME280;70698;44.402;18.522;2024-03-22T00:03:07;97778.47;;;7.26;72.94
81224;BME280;70698;44.402;18.522;2024-03-22T00:05:33;97782.75;;;7.27;72.42
81224;BME280;70698;44.402;18.522;2024-03-22T00:07:58;97770.56;;;7.35;71.67
81224;BME280;70698;44.402;18.522;2024-03-22T00:10:24;97781.09;;;7.44;71.34
81224;BME280;70698;44.402;18.522;2024-03-22T00:12:50;97793.59;;;7.50;71.25
81224;BME280;70698;44.402;18.522;2024-03-22T00:15:15;97787.78;;;7.56;70.92
81224;BME280;70698;44.402;18.522;2024-03-22T00:17:43;97789.38;;;7.21;73.02
81224;BME280;70698;44.402;18.522;2024-03-22T00:20:09;97795.94;;;7.25;74.01
81224;BME280;70698;44.402;18.522;2024-03-22T00:22:34;97794.34;;;7.15;73.51
81224;BME280;70698;44.402;18.522;2024-03-22T00:25:00;97786.81;;;7.12;74.92
81224;BME280;70698;44.402;18.522;2024-03-22T00:27:26;97770.50;;;7.00;74.07
81224;BME280;70698;44.402;18.522;2024-03-22T00:29:51;97767.97;;;7.35;69.80
81224;BME280;70698;44.402;18.522;2024-03-22T00:32:17;97762.09;;;7.51;70.06
81224;BME280;70698;44.402;18.522;2024-03-22T00:34:43;97778.00;;;7.75;67.18
81224;BME280;70698;44.402;18.522;2024-03-22T00:37:09;97762.81;;;7.44;70.75
81224;BME280;70698;44.402;18.522;2024-03-22T00:39:34;97775.88;;;7.44;69.70
81224;BME280;70698;44.402;18.522;2024-03-22T00:42:01;97773.13;;;7.63;67.16
81224;BME280;70698;44.402;18.522;2024-03-22T00:44:26;97763.13;;;7.76;66.44
81224;BME280;70698;44.402;18.522;2024-03-22T00:46:52;97764.25;;;7.73;66.90
81224;BME280;70698;44.402;18.522;2024-03-22T00:49:18;97767.69;;;7.74;66.91
81224;BME280;70698;44.402;18.522;2024-03-22T00:51:43;97767.16;;;7.53;69.90
81224;BME280;70698;44.402;18.522;2024-03-22T00:54:10;97771.06;;;7.21;72.42
81224;BME280;70698;44.402;18.522;2024-03-22T00:56:36;97767.56;;;7.03;72.67
81224;BME280;70698;44.402;18.522;2024-03-22T00:59:01;97763.13;;;6.86;73.50
81224;BME280;70698;44.402;18.522;2024-03-22T01:01:27;97768.31;;;6.49;77.04
81224;BME280;70698;44.402;18.522;2024-03-22T01:03:53;97766.09;;;6.64;73.50
81224;BME280;70698;44.402;18.522;2024-03-22T01:06:18;97766.63;;;7.04;69.86
81224;BME280;70698;44.402;18.522;2024-03-22T01:08:49;97767.84;;;7.27;69.46
81224;BME280;70698;44.402;18.522;2024-03-22T01:11:15;97769.19;;;6.86;73.51
81224;BME280;70698;44.402;18.522;2024-03-22T01:13:40;97775.09;;;6.79;74.45
81224;BME280;70698;44.402;18.522;2024-03-22T01:16:06;97779.69;;;6.58;76.90
81224;BME280;70698;44.402;18.522;2024-03-22T01:18:36;97768.59;;;6.56;76.59
81224;BME280;70698;44.402;18.522;2024-03-22T01:21:02;97769.94;;;6.60;77.37
81224;BME280;70698;44.402;18.522;2024-03-22T01:23:28;97763.88;;;6.22;79.74
81224;BME280;70698;44.402;18.522;2024-03-22T01:25:53;97771.97;;;6.10;81.66
81224;BME280;70698;44.402;18.522;2024-03-22T01:28:19;97751.00;;;5.92;83.26
81224;BME280;70698;44.402;18.522;2024-03-22T01:30:44;97760.84;;;6.17;79.47
81224;BME280;70698;44.402;18.522;2024-03-22T01:33:10;97762.47;;;6.28;78.49
81224;BME280;70698;44.402;18.522;2024-03-22T01:35:36;97761.06;;;6.43;77.67
81224;BME280;70698;44.402;18.522;2024-03-22T01:38:01;97763.63;;;6.53;76.42
81224;BME280;70698;44.402;18.522;2024-03-22T01:40:27;97765.59;;;6.51;77.86
81224;BME280;70698;44.402;18.522;2024-03-22T01:42:56;97767.97;;;6.25;79.24
81224;BME280;70698;44.402;18.522;2024-03-22T01:45:21;97767.94;;;6.34;78.56
81224;BME280;70698;44.402;18.522;2024-03-22T01:47:51;97753.66;;;6.38;77.03
81224;BME280;70698;44.402;18.522;2024-03-22T01:50:17;97765.75;;;6.39;78.49
81224;BME280;70698;44.402;18.522;2024-03-22T01:52:43;97765.78;;;6.20;80.15
81224;BME280;70698;44.402;18.522;2024-03-22T01:55:09;97753.03;;;6.17;79.15
81224;BME280;70698;44.402;18.522;2024-03-22T01:57:35;97756.19;;;6.11;79.13
81224;BME280;70698;44.402;18.522;2024-03-22T02:00:01;97780.75;;;6.09;79.05
81224;BME280;70698;44.402;18.522;2024-03-22T02:02:28;97773.50;;;5.93;80.09
81224;BME280;70698;44.402;18.522;2024-03-22T02:04:53;97761.94;;;5.86;80.23
81224;BME280;70698;44.402;18.522;2024-03-22T02:07:19;97775.66;;;5.59;82.94
81224;BME280;70698;44.402;18.522;2024-03-22T02:09:45;97774.56;;;5.71;83.44
81224;BME280;70698;44.402;18.522;2024-03-22T02:12:10;97774.56;;;5.61;82.99
81224;BME280;70698;44.402;18.522;2024-03-22T02:14:36;97778.66;;;5.54;84.10
81224;BME280;70698;44.402;18.522;2024-03-22T02:17:02;97767.50;;;5.33;85.94
81224;BME280;70698;44.402;18.522;2024-03-22T02:19:28;97778.53;;;5.46;84.94
81224;BME280;70698;44.402;18.522;2024-03-22T02:21:53;97770.19;;;5.52;84.32
81224;BME280;70698;44.402;18.522;2024-03-22T02:24:19;97769.47;;;5.50;83.87
81224;BME280;70698;44.402;18.522;2024-03-22T02:26:44;97767.66;;;5.32;85.83
81224;BME280;70698;44.402;18.522;2024-03-22T02:29:10;97768.53;;;5.51;85.63
81224;BME280;70698;44.402;18.522;2024-03-22T02:31:36;97773.22;;;5.67;83.56
81224;BME280;70698;44.402;18.522;2024-03-22T02:34:01;97771.97;;;5.61;83.45
81224;BME280;70698;44.402;18.522;2024-03-22T02:36:28;97765.78;;;5.72;83.18
81224;BME280;70698;44.402;18.522;2024-03-22T02:38:53;97764.56;;;6.15;77.96
81224;BME280;70698;44.402;18.522;2024-03-22T02:41:20;97762.56;;;6.45;75.31
81224;BME280;70698;44.402;18.522;2024-03-22T02:43:46;97771.44;;;6.72;74.12
81224;BME280;70698;44.402;18.522;2024-03-22T02:46:11;97768.13;;;6.70;75.19
81224;BME280;70698;44.402;18.522;2024-03-22T02:48:37;97770.00;;;6.40;76.87
81224;BME280;70698;44.402;18.522;2024-03-22T02:51:03;97784.50;;;5.87;80.55
81224;BME280;70698;44.402;18.522;2024-03-22T02:53:29;97779.38;;;5.56;82.75
81224;BME280;70698;44.402;18.522;2024-03-22T02:55:54;97784.47;;;5.68;82.32
81224;BME280;70698;44.402;18.522;2024-03-22T02:58:20;97784.31;;;5.79;81.66
81224;BME280;70698;44.402;18.522;2024-03-22T03:00:46;97779.38;;;5.76;82.25
81224;BME280;70698;44.402;18.522;2024-03-22T03:03:12;97794.66;;;5.90;80.94
81224;BME280;70698;44.402;18.522;2024-03-22T03:05:38;97804.94;;;6.01;81.30
81224;BME280;70698;44.402;18.522;2024-03-22T03:08:04;97796.81;;;5.85;83.59
81224;BME280;70698;44.402;18.522;2024-03-22T03:10:30;97795.47;;;5.90;82.62
81224;BME280;70698;44.402;18.522;2024-03-22T03:12:56;97794.31;;;5.64;84.77
81224;BME280;70698;44.402;18.522;2024-03-22T03:15:21;97801.19;;;5.65;86.49
81224;BME280;70698;44.402;18.522;2024-03-22T03:17:47;97791.31;;;5.69;86.40
81224;BME280;70698;44.402;18.522;2024-03-22T03:20:13;97803.13;;;5.82;85.45
81224;BME280;70698;44.402;18.522;2024-03-22T03:22:41;97794.19;;;5.85;85.48
81224;BME280;70698;44.402;18.522;2024-03-22T03:25:07;97789.94;;;5.84;86.19
81224;BME280;70698;44.402;18.522;2024-03-22T03:27:33;97802.06;;;6.04;85.03
81224;BME280;70698;44.402;18.522;2024-03-22T03:29:59;97798.19;;;6.08;83.90
81224;BME280;70698;44.402;18.522;2024-03-22T03:32:26;97790.19;;;6.38;80.74
81224;BME280;70698;44.402;18.522;2024-03-22T03:34:52;97786.28;;;6.05;83.02
81224;BME280;70698;44.402;18.522;2024-03-22T03:37:18;97801.22;;;6.03;83.40
81224;BME280;70698;44.402;18.522;2024-03-22T03:39:43;97799.31;;;6.15;83.16
81224;BME280;70698;44.402;18.522;2024-03-22T03:42:10;97793.38;;;6.13;82.69
81224;BME280;70698;44.402;18.522;2024-03-22T03:44:35;97794.22;;;6.04;85.89
81224;BME280;70698;44.402;18.522;2024-03-22T03:47:01;97792.94;;;6.46;80.95
81224;BME280;70698;44.402;18.522;2024-03-22T03:49:28;97788.38;;;6.48;81.50
81224;BME280;70698;44.402;18.522;2024-03-22T03:51:53;97788.00;;;6.43;81.74
81224;BME280;70698;44.402;18.522;2024-03-22T03:54:19;97789.31;;;6.67;77.25
81224;BME280;70698;44.402;18.522;2024-03-22T03:56:45;97790.50;;;6.82;76.28
81224;BME280;70698;44.402;18.522;2024-03-22T03:59:10;97782.59;;;6.64;79.63
81224;BME280;70698;44.402;18.522;2024-03-22T04:01:36;97802.78;;;6.72;78.18
81224;BME280;70698;44.402;18.522;2024-03-22T04:04:02;97793.66;;;6.85;76.50
81224;BME280;70698;44.402;18.522;2024-03-22T04:06:28;97804.09;;;6.85;77.29
81224;BME280;70698;44.402;18.522;2024-03-22T04:08:54;97807.69;;;6.84;78.33
81224;BME280;70698;44.402;18.522;2024-03-22T04:11:19;97806.25;;;6.43;81.95
81224;BME280;70698;44.402;18.522;2024-03-22T04:13:45;97814.69;;;6.18;84.18
81224;BME280;70698;44.402;18.522;2024-03-22T04:16:10;97820.59;;;6.11;84.67
81224;BME280;70698;44.402;18.522;2024-03-22T04:18:36;97816.59;;;5.78;86.56
81224;BME280;70698;44.402;18.522;2024-03-22T04:21:02;97825.09;;;5.80;86.99
81224;BME280;70698;44.402;18.522;2024-03-22T04:23:28;97817.13;;;5.81;88.85
81224;BME280;70698;44.402;18.522;2024-03-22T04:25:56;97821.13;;;5.85;89.14
81224;BME280;70698;44.402;18.522;2024-03-22T04:28:24;97826.91;;;5.98;88.21
81224;BME280;70698;44.402;18.522;2024-03-22T04:31:01;97815.22;;;6.41;80.30
81224;BME280;70698;44.402;18.522;2024-03-22T04:33:28;97819.03;;;6.56;81.86
81224;BME280;70698;44.402;18.522;2024-03-22T04:35:54;97816.25;;;6.58;82.39
81224;BME280;70698;44.402;18.522;2024-03-22T04:38:22;97829.00;;;6.80;78.17
81224;BME280;70698;44.402;18.522;2024-03-22T04:40:47;97818.66;;;6.88;78.06
81224;BME280;70698;44.402;18.522;2024-03-22T04:43:14;97820.25;;;6.71;80.96
81224;BME280;70698;44.402;18.522;2024-03-22T04:45:44;97832.19;;;6.64;82.27
81224;BME280;70698;44.402;18.522;2024-03-22T04:48:12;97826.50;;;6.32;85.66
81224;BME280;70698;44.402;18.522;2024-03-22T04:50:38;97838.44;;;6.25;85.85
81224;BME280;70698;44.402;18.522;2024-03-22T04:53:04;97832.13;;;6.37;84.08
81224;BME280;70698;44.402;18.522;2024-03-22T04:55:31;97836.53;;;6.17;87.47
81224;BME280;70698;44.402;18.522;2024-03-22T04:57:58;97845.88;;;6.20;88.06
81224;BME280;70698;44.402;18.522;2024-03-22T05:00:24;97843.25;;;6.20;88.12
81224;BME280;70698;44.402;18.522;2024-03-22T05:02:51;97848.47;;;6.20;89.08
81224;BME280;70698;44.402;18.522;2024-03-22T05:05:17;97847.22;;;6.24;90.11
81224;BME280;70698;44.402;18.522;2024-03-22T05:07:42;97849.84;;;6.33;90.96
81224;BME280;70698;44.402;18.522;2024-03-22T05:10:08;97845.44;;;6.24;88.33
81224;BME280;70698;44.402;18.522;2024-03-22T05:12:35;97845.72;;;6.31;87.96
81224;BME280;70698;44.402;18.522;2024-03-22T05:15:02;97851.22;;;6.37;88.16
81224;BME280;70698;44.402;18.522;2024-03-22T05:17:29;97843.94;;;6.41;88.31
81224;BME280;70698;44.402;18.522;2024-03-22T05:20:00;97839.25;;;6.44;87.21
81224;BME280;70698;44.402;18.522;2024-03-22T05:22:26;97848.44;;;6.58;88.80
81224;BME280;70698;44.402;18.522;2024-03-22T05:24:51;97845.56;;;6.52;88.17
81224;BME280;70698;44.402;18.522;2024-03-22T05:27:18;97851.59;;;6.62;88.56
81224;BME280;70698;44.402;18.522;2024-03-22T05:29:43;97857.03;;;6.78;88.40
81224;BME280;70698;44.402;18.522;2024-03-22T05:32:10;97857.47;;;6.73;88.92
81224;BME280;70698;44.402;18.522;2024-03-22T05:34:35;97855.00;;;6.81;88.12
81224;BME280;70698;44.402;18.522;2024-03-22T05:37:02;97852.19;;;7.02;85.67
81224;BME280;70698;44.402;18.522;2024-03-22T05:39:28;97846.41;;;7.35;80.36
81224;BME280;70698;44.402;18.522;2024-03-22T05:41:54;97861.59;;;7.50;78.26
81224;BME280;70698;44.402;18.522;2024-03-22T05:44:22;97865.88;;;7.51;82.63
81224;BME280;70698;44.402;18.522;2024-03-22T05:46:48;97868.72;;;7.57;82.28
81224;BME280;70698;44.402;18.522;2024-03-22T05:49:14;97871.53;;;7.46;83.74
81224;BME280;70698;44.402;18.522;2024-03-22T05:51:40;97876.16;;;7.52;83.04
81224;BME280;70698;44.402;18.522;2024-03-22T05:54:06;97872.97;;;7.58;84.07
81224;BME280;70698;44.402;18.522;2024-03-22T05:56:32;97869.47;;;7.67;83.26
81224;BME280;70698;44.402;18.522;2024-03-22T05:58:57;97881.06;;;7.65;84.97
81224;BME280;70698;44.402;18.522;2024-03-22T06:01:23;97876.94;;;7.62;87.01
81224;BME280;70698;44.402;18.522;2024-03-22T06:03:48;97875.84;;;7.65;86.01
81224;BME280;70698;44.402;18.522;2024-03-22T06:06:14;97881.84;;;7.75;88.27
81224;BME280;70698;44.402;18.522;2024-03-22T06:08:40;97870.03;;;7.89;83.98
81224;BME280;70698;44.402;18.522;2024-03-22T06:11:07;97858.16;;;7.94;84.75
81224;BME280;70698;44.402;18.522;2024-03-22T06:13:33;97861.53;;;8.04;83.08
81224;BME280;70698;44.402;18.522;2024-03-22T06:15:59;97866.88;;;8.30;79.96
81224;BME280;70698;44.402;18.522;2024-03-22T06:18:25;97868.38;;;8.50;82.44
81224;BME280;70698;44.402;18.522;2024-03-22T06:20:50;97865.81;;;8.58;84.57
81224;BME280;70698;44.402;18.522;2024-03-22T06:23:16;97873.47;;;8.78;83.27
81224;BME280;70698;44.402;18.522;2024-03-22T06:25:51;97857.97;;;8.84;83.41
81224;BME280;70698;44.402;18.522;2024-03-22T06:28:16;97874.41;;;8.94;76.18
81224;BME280;70698;44.402;18.522;2024-03-22T06:30:42;97863.75;;;9.22;72.43
81224;BME280;70698;44.402;18.522;2024-03-22T06:33:07;97863.78;;;9.30;78.62
81224;BME280;70698;44.402;18.522;2024-03-22T06:35:33;97864.44;;;9.32;77.00
81224;BME280;70698;44.402;18.522;2024-03-22T06:37:59;97856.69;;;9.56;71.49
81224;BME280;70698;44.402;18.522;2024-03-22T06:40:28;97854.94;;;9.73;70.98
81224;BME280;70698;44.402;18.522;2024-03-22T06:42:54;97860.56;;;9.86;67.98
81224;BME280;70698;44.402;18.522;2024-03-22T06:45:20;97848.91;;;9.97;67.48
81224;BME280;70698;44.402;18.522;2024-03-22T06:47:45;97859.94;;;10.00;66.64
81224;BME280;70698;44.402;18.522;2024-03-22T06:50:11;97860.63;;;10.10;66.47
81224;BME280;70698;44.402;18.522;2024-03-22T06:52:37;97857.31;;;10.08;66.63
81224;BME280;70698;44.402;18.522;2024-03-22T06:55:02;97864.91;;;10.19;65.86
81224;BME280;70698;44.402;18.522;2024-03-22T06:57:29;97863.75;;;10.22;66.07
81224;BME280;70698;44.402;18.522;2024-03-22T06:59:54;97867.56;;;10.35;66.27
81224;BME280;70698;44.402;18.522;2024-03-22T07:02:20;97859.34;;;10.39;65.15
81224;BME280;70698;44.402;18.522;2024-03-22T07:04:46;97867.72;;;10.58;64.88
81224;BME280;70698;44.402;18.522;2024-03-22T07:07:12;97870.19;;;10.68;63.29
81224;BME280;70698;44.402;18.522;2024-03-22T07:09:37;97866.44;;;10.70;62.01
81224;BME280;70698;44.402;18.522;2024-03-22T07:12:03;97843.72;;;10.77;61.83
81224;BME280;70698;44.402;18.522;2024-03-22T07:14:29;97862.78;;;10.96;60.88
81224;BME280;70698;44.402;18.522;2024-03-22T07:16:55;97865.47;;;11.27;61.41
81224;BME280;70698;44.402;18.522;2024-03-22T07:19:21;97861.47;;;11.55;59.94
81224;BME280;70698;44.402;18.522;2024-03-22T07:21:47;97862.53;;;11.69;58.40
81224;BME280;70698;44.402;18.522;2024-03-22T07:24:13;97859.41;;;11.73;58.22
81224;BME280;70698;44.402;18.522;2024-03-22T07:26:39;97855.59;;;11.76;58.68
81224;BME280;70698;44.402;18.522;2024-03-22T07:29:05;97854.06;;;11.89;57.59
81224;BME280;70698;44.402;18.522;2024-03-22T07:31:30;97851.81;;;12.09;57.17
81224;BME280;70698;44.402;18.522;2024-03-22T07:33:56;97857.09;;;12.32;57.66
81224;BME280;70698;44.402;18.522;2024-03-22T07:36:22;97854.06;;;12.20;55.89
81224;BME280;70698;44.402;18.522;2024-03-22T07:38:48;97843.31;;;12.22;55.50
81224;BME280;70698;44.402;18.522;2024-03-22T07:41:16;97843.66;;;12.41;54.77
81224;BME280;70698;44.402;18.522;2024-03-22T07:43:42;97843.38;;;12.59;56.18
81224;BME280;70698;44.402;18.522;2024-03-22T07:46:07;97842.03;;;12.78;60.11
81224;BME280;70698;44.402;18.522;2024-03-22T07:48:33;97839.03;;;12.81;59.45
81224;BME280;70698;44.402;18.522;2024-03-22T07:50:59;97832.31;;;12.78;60.55
81224;BME280;70698;44.402;18.522;2024-03-22T07:53:25;97825.31;;;12.85;59.12
81224;BME280;70698;44.402;18.522;2024-03-22T07:55:51;97836.41;;;12.81;55.89
81224;BME280;70698;44.402;18.522;2024-03-22T07:58:17;97837.78;;;13.06;55.90
81224;BME280;70698;44.402;18.522;2024-03-22T08:00:42;97836.97;;;13.06;55.57
81224;BME280;70698;44.402;18.522;2024-03-22T08:03:14;97844.34;;;13.10;54.33
81224;BME280;70698;44.402;18.522;2024-03-22T08:05:40;97849.81;;;13.09;52.94
81224;BME280;70698;44.402;18.522;2024-03-22T08:08:06;97848.00;;;12.94;48.20
81224;BME280;70698;44.402;18.522;2024-03-22T08:10:32;97855.16;;;13.23;50.91
81224;BME280;70698;44.402;18.522;2024-03-22T08:12:58;97851.84;;;13.51;51.73
81224;BME280;70698;44.402;18.522;2024-03-22T08:15:23;97858.66;;;13.45;53.26
81224;BME280;70698;44.402;18.522;2024-03-22T08:17:49;97856.22;;;13.44;49.94
81224;BME280;70698;44.402;18.522;2024-03-22T08:20:14;97852.59;;;13.59;51.84
81224;BME280;70698;44.402;18.522;2024-03-22T08:22:40;97856.78;;;13.54;52.94
81224;BME280;70698;44.402;18.522;2024-03-22T08:25:06;97856.56;;;13.55;52.55
81224;BME280;70698;44.402;18.522;2024-03-22T08:27:33;97854.75;;;13.56;51.80
81224;BME280;70698;44.402;18.522;2024-03-22T08:30:00;97847.06;;;13.75;53.43
81224;BME280;70698;44.402;18.522;2024-03-22T08:32:26;97847.31;;;13.59;49.96
81224;BME280;70698;44.402;18.522;2024-03-22T08:34:51;97842.31;;;13.86;52.30
81224;BME280;70698;44.402;18.522;2024-03-22T08:37:17;97841.72;;;13.69;52.10
81224;BME280;70698;44.402;18.522;2024-03-22T08:39:43;97844.06;;;14.14;54.23
81224;BME280;70698;44.402;18.522;2024-03-22T08:42:09;97838.75;;;14.50;51.61
81224;BME280;70698;44.402;18.522;2024-03-22T08:44:35;97842.72;;;14.40;51.44
81224;BME280;70698;44.402;18.522;2024-03-22T08:47:01;97840.94;;;14.47;52.54
81224;BME280;70698;44.402;18.522;2024-03-22T08:49:26;97837.88;;;14.43;52.66
81224;BME280;70698;44.402;18.522;2024-03-22T08:51:52;97828.06;;;14.65;53.47
81224;BME280;70698;44.402;18.522;2024-03-22T08:54:18;97823.31;;;15.09;48.38
81224;BME280;70698;44.402;18.522;2024-03-22T08:56:43;97818.75;;;14.97;46.30
81224;BME280;70698;44.402;18.522;2024-03-22T08:59:09;97826.88;;;15.23;48.56
81224;BME280;70698;44.402;18.522;2024-03-22T09:01:36;97828.28;;;15.19;46.13
81224;BME280;70698;44.402;18.522;2024-03-22T09:04:02;97831.38;;;15.29;47.28
81224;BME280;70698;44.402;18.522;2024-03-22T09:06:28;97822.16;;;15.53;46.39
81224;BME280;70698;44.402;18.522;2024-03-22T09:08:54;97824.22;;;15.58;49.78
81224;BME280;70698;44.402;18.522;2024-03-22T09:11:26;97824.69;;;15.74;46.09
81224;BME280;70698;44.402;18.522;2024-03-22T09:13:52;97822.69;;;15.89;42.80
81224;BME280;70698;44.402;18.522;2024-03-22T09:16:22;97814.16;;;16.01;42.99
81224;BME280;70698;44.402;18.522;2024-03-22T09:18:48;97813.13;;;15.88;45.30
81224;BME280;70698;44.402;18.522;2024-03-22T09:21:14;97812.16;;;16.03;46.36
81224;BME280;70698;44.402;18.522;2024-03-22T09:23:39;97814.81;;;16.03;47.39
81224;BME280;70698;44.402;18.522;2024-03-22T09:26:05;97814.53;;;15.84;45.34
81224;BME280;70698;44.402;18.522;2024-03-22T09:28:31;97816.03;;;16.20;42.92
81224;BME280;70698;44.402;18.522;2024-03-22T09:30:57;97816.53;;;16.69;44.07
81224;BME280;70698;44.402;18.522;2024-03-22T09:33:22;97820.41;;;16.67;45.01
81224;BME280;70698;44.402;18.522;2024-03-22T09:35:48;97816.72;;;16.74;46.50
81224;BME280;70698;44.402;18.522;2024-03-22T09:38:14;97808.59;;;16.63;41.79
81224;BME280;70698;44.402;18.522;2024-03-22T09:40:43;97813.22;;;16.54;39.41
81224;BME280;70698;44.402;18.522;2024-03-22T09:43:11;97817.81;;;17.44;38.26
81224;BME280;70698;44.402;18.522;2024-03-22T09:45:41;97809.47;;;17.47;44.49
81224;BME280;70698;44.402;18.522;2024-03-22T09:48:07;97806.00;;;17.34;46.39
81224;BME280;70698;44.402;18.522;2024-03-22T09:50:33;97806.34;;;17.57;42.80
81224;BME280;70698;44.402;18.522;2024-03-22T09:53:00;97795.19;;;17.35;41.64
81224;BME280;70698;44.402;18.522;2024-03-22T09:55:28;97802.38;;;17.28;43.95
81224;BME280;70698;44.402;18.522;2024-03-22T09:57:55;97786.38;;;17.41;41.51
81224;BME280;70698;44.402;18.522;2024-03-22T10:00:21;97785.66;;;17.72;38.38
81224;BME280;70698;44.402;18.522;2024-03-22T10:02:51;97792.50;;;17.48;38.82
81224;BME280;70698;44.402;18.522;2024-03-22T10:05:18;97787.03;;;17.88;39.10
81224;BME280;70698;44.402;18.522;2024-03-22T10:07:45;97784.44;;;17.04;42.60
81224;BME280;70698;44.402;18.522;2024-03-22T10:10:10;97785.69;;;16.88;39.84
81224;BME280;70698;44.402;18.522;2024-03-22T10:12:37;97788.13;;;16.50;39.46
81224;BME280;70698;44.402;18.522;2024-03-22T10:15:05;97784.47;;;16.77;42.52
81224;BME280;70698;44.402;18.522;2024-03-22T10:17:34;97784.69;;;17.53;40.36
81224;BME280;70698;44.402;18.522;2024-03-22T10:20:00;97783.88;;;17.53;38.29
81224;BME280;70698;44.402;18.522;2024-03-22T10:22:25;97790.09;;;17.27;37.78
81224;BME280;70698;44.402;18.522;2024-03-22T10:24:51;97784.84;;;17.07;38.07
81224;BME280;70698;44.402;18.522;2024-03-22T10:27:18;97781.81;;;17.55;38.47
81224;BME280;70698;44.402;18.522;2024-03-22T10:29:44;97786.44;;;17.15;38.28
81224;BME280;70698;44.402;18.522;2024-03-22T10:32:10;97775.56;;;17.36;40.12
81224;BME280;70698;44.402;18.522;2024-03-22T10:34:36;97784.38;;;17.23;40.56
81224;BME280;70698;44.402;18.522;2024-03-22T10:37:02;97783.88;;;16.82;39.29
81224;BME280;70698;44.402;18.522;2024-03-22T10:39:30;97778.47;;;17.15;38.77
81224;BME280;70698;44.402;18.522;2024-03-22T10:41:56;97779.88;;;17.24;38.39
81224;BME280;70698;44.402;18.522;2024-03-22T10:44:21;97766.72;;;17.49;38.73
81224;BME280;70698;44.402;18.522;2024-03-22T10:46:49;97766.78;;;17.87;39.18
81224;BME280;70698;44.402;18.522;2024-03-22T10:49:19;97775.38;;;18.45;38.13
81224;BME280;70698;44.402;18.522;2024-03-22T10:51:59;97774.44;;;17.70;39.13
81224;BME280;70698;44.402;18.522;2024-03-22T10:54:39;97763.28;;;17.93;38.43
81224;BME280;70698;44.402;18.522;2024-03-22T10:57:05;97756.56;;;18.15;35.20
81224;BME280;70698;44.402;18.522;2024-03-22T10:59:34;97749.13;;;18.55;35.87
81224;BME280;70698;44.402;18.522;2024-03-22T11:02:04;97750.81;;;18.18;37.81
81224;BME280;70698;44.402;18.522;2024-03-22T11:04:32;97744.44;;;18.75;36.76
81224;BME280;70698;44.402;18.522;2024-03-22T11:06:58;97737.56;;;19.59;35.66
81224;BME280;70698;44.402;18.522;2024-03-22T11:09:25;97741.88;;;19.60;37.56
81224;BME280;70698;44.402;18.522;2024-03-22T11:11:52;97739.97;;;19.49;37.17
81224;BME280;70698;44.402;18.522;2024-03-22T11:14:18;97744.91;;;19.93;34.71
81224;BME280;70698;44.402;18.522;2024-03-22T11:16:44;97725.31;;;19.99;33.77
81224;BME280;70698;44.402;18.522;2024-03-22T11:19:10;97725.16;;;19.34;32.88
81224;BME280;70698;44.402;18.522;2024-03-22T11:21:37;97716.34;;;19.52;34.32
81224;BME280;70698;44.402;18.522;2024-03-22T11:24:04;97721.91;;;19.14;38.71
81224;BME280;70698;44.402;18.522;2024-03-22T11:26:31;97722.84;;;19.38;36.97
81224;BME280;70698;44.402;18.522;2024-03-22T11:28:57;97716.63;;;19.62;33.38
81224;BME280;70698;44.402;18.522;2024-03-22T11:31:22;97710.22;;;19.93;35.15
81224;BME280;70698;44.402;18.522;2024-03-22T11:33:56;97713.75;;;20.05;34.38
81224;BME280;70698;44.402;18.522;2024-03-22T11:36:22;97705.31;;;18.58;38.15
81224;BME280;70698;44.402;18.522;2024-03-22T11:38:48;97701.00;;;18.32;37.40
81224;BME280;70698;44.402;18.522;2024-03-22T11:41:25;97714.78;;;17.91;39.76
81224;BME280;70698;44.402;18.522;2024-03-22T11:43:53;97701.28;;;17.54;39.01
81224;BME280;70698;44.402;18.522;2024-03-22T11:46:20;97707.94;;;17.77;41.80
81224;BME280;70698;44.402;18.522;2024-03-22T11:48:53;97697.59;;;18.18;38.98
81224;BME280;70698;44.402;18.522;2024-03-22T11:51:19;97708.22;;;17.62;40.15
81224;BME280;70698;44.402;18.522;2024-03-22T11:53:52;97699.13;;;17.83;39.47
81224;BME280;70698;44.402;18.522;2024-03-22T11:56:19;97688.41;;;17.58;40.77
81224;BME280;70698;44.402;18.522;2024-03-22T11:58:48;97692.59;;;17.34;40.77
81224;BME280;70698;44.402;18.522;2024-03-22T12:01:17;97688.75;;;16.72;39.51
81224;BME280;70698;44.402;18.522;2024-03-22T12:03:46;97685.47;;;16.77;41.59
81224;BME280;70698;44.402;18.522;2024-03-22T12:06:12;97689.63;;;17.11;41.39
81224;BME280;70698;44.402;18.522;2024-03-22T12:08:38;97690.25;;;17.51;37.54
81224;BME280;70698;44.402;18.522;2024-03-22T12:11:10;97682.47;;;17.62;37.14
81224;BME280;70698;44.402;18.522;2024-03-22T12:13:38;97684.25;;;17.24;37.82
81224;BME280;70698;44.402;18.522;2024-03-22T12:16:04;97675.25;;;17.32;37.95
81224;BME280;70698;44.402;18.522;2024-03-22T12:18:31;97677.19;;;17.49;38.58
81224;BME280;70698;44.402;18.522;2024-03-22T12:20:57;97665.09;;;17.60;38.93
81224;BME280;70698;44.402;18.522;2024-03-22T12:23:23;97670.47;;;17.47;38.11
81224;BME280;70698;44.402;18.522;2024-03-22T12:25:51;97661.88;;;17.00;39.93
81224;BME280;70698;44.402;18.522;2024-03-22T12:28:17;97664.72;;;17.50;38.81
81224;BME280;70698;44.402;18.522;2024-03-22T12:30:43;97664.88;;;17.61;37.34
81224;BME280;70698;44.402;18.522;2024-03-22T12:33:09;97652.41;;;16.73;40.83
81224;BME280;70698;44.402;18.522;2024-03-22T12:35:41;97664.22;;;16.70;41.01
81224;BME280;70698;44.402;18.522;2024-03-22T12:38:07;97658.09;;;16.76;41.86
81224;BME280;70698;44.402;18.522;2024-03-22T12:40:37;97663.25;;;17.23;39.71
81224;BME280;70698;44.402;18.522;2024-03-22T12:43:04;97656.81;;;17.43;38.92
81224;BME280;70698;44.402;18.522;2024-03-22T12:45:29;97662.44;;;17.60;37.83
81224;BME280;70698;44.402;18.522;2024-03-22T12:47:55;97656.63;;;17.38;37.31
81224;BME280;70698;44.402;18.522;2024-03-22T12:50:21;97651.97;;;17.58;37.93